Time;durP1;ratioP1;P1;durP2;ratioP2;P2;SDS_P1;SDS_P2;PMS_P1;PMS_P2;Temp;Humidity;BMP_temperature;BMP_pressure;BME280_temperature;BME280_humidity;BME280_pressure;Samples;Min_cycle;Max_cycle;Signal;HPM_P1;HPM_P2
2023/05/26 00:00:07;;;;;;;20.05;4.88;;;;;;;14.51;65.63;102060.06;5058843;28;20032;-71
2023/05/26 00:02:39;;;;;;;23.65;6.38;;;;;;;14.49;67.32;102089.16;5059038;28;20493;-71
2023/05/26 00:05:08;;;;;;;20.05;4.30;;;;;;;14.43;65.82;102064.72;5059187;28;20029;-70
2023/05/26 00:07:38;;;;;;;21.63;5.68;;;;;;;14.56;66.57;102079.25;5059143;28;20030;-70
2023/05/26 00:10:04;;;;;;;23.50;5.68;;;;;;;14.50;65.11;102054.78;5076730;28;20044;-70
2023/05/26 00:12:30;;;;;;;19.92;4.95;;;;;;;14.50;66.00;102071.94;5058856;28;20031;-71
2023/05/26 00:14:55;;;;;;;18.23;4.95;;;;;;;14.34;62.18;102085.69;5042558;28;20078;-71
2023/05/26 00:17:21;;;;;;;22.33;4.68;;;;;;;14.55;64.33;102066.75;5042515;28;20033;-70
2023/05/26 00:19:49;;;;;;;24.83;4.57;;;;;;;14.56;64.18;102084.66;5093935;28;20032;-70
2023/05/26 00:22:15;;;;;;;21.25;6.07;;;;;;;14.47;66.14;102074.13;5066867;28;20036;-70
2023/05/26 00:24:41;;;;;;;14.80;4.05;;;;;;;14.43;65.47;102083.69;5061779;28;20079;-71
2023/05/26 00:27:06;;;;;;;23.52;5.35;;;;;;;14.36;69.23;102056.53;5061641;28;20557;-70
2023/05/26 00:29:31;;;;;;;20.77;4.82;;;;;;;14.43;68.33;102072.84;5060019;28;20585;-70
2023/05/26 00:31:57;;;;;;;21.00;5.38;;;;;;;14.27;63.92;102058.56;5046322;28;20037;-71
2023/05/26 00:34:22;;;;;;;16.50;4.57;;;;;;;14.26;65.35;102042.47;5063298;28;20039;-70
2023/05/26 00:36:48;;;;;;;18.38;4.55;;;;;;;14.17;62.86;102041.78;5046657;28;20067;-70
2023/05/26 00:39:13;;;;;;;21.38;5.03;;;;;;;14.29;65.54;102072.72;5062896;28;20028;-71
2023/05/26 00:41:39;;;;;;;13.70;3.97;;;;;;;14.12;64.01;102054.22;5060924;28;20043;-71
2023/05/26 00:44:04;;;;;;;20.00;4.70;;;;;;;14.30;65.15;102065.44;5059951;28;20104;-71
2023/05/26 00:46:30;;;;;;;19.38;4.35;;;;;;;14.36;65.58;102070.06;5079839;28;20020;-70
2023/05/26 00:48:56;;;;;;;17.52;4.07;;;;;;;14.14;63.98;102052.13;5060748;28;20020;-70
2023/05/26 00:51:22;;;;;;;20.83;4.40;;;;;;;14.18;66.33;102061.56;5079017;28;20039;-70
2023/05/26 00:53:48;;;;;;;15.05;4.00;;;;;;;14.26;65.88;102066.84;5078996;28;20036;-71
2023/05/26 00:56:18;;;;;;;18.77;3.90;;;;;;;14.37;69.01;102066.34;5077371;28;20494;-72
2023/05/26 00:58:44;;;;;;;21.38;5.05;;;;;;;14.39;69.20;102076.97;5044517;28;20028;-70
2023/05/26 01:01:10;;;;;;;17.25;4.93;;;;;;;14.14;66.99;102035.91;5058003;28;20052;-71
2023/05/26 01:03:38;;;;;;;20.58;4.80;;;;;;;14.22;68.83;102079.09;5071588;28;20009;-71
2023/05/26 01:06:05;;;;;;;22.92;4.82;;;;;;;14.26;69.52;102059.56;5070433;28;20108;-71
2023/05/26 01:08:32;;;;;;;15.15;3.95;;;;;;;14.26;70.10;102073.09;5056685;28;20043;-71
2023/05/26 01:11:19;;;;;;;15.43;4.13;;;;;;;14.24;66.75;102066.22;5058933;28;20017;-71
2023/05/26 01:14:03;;;;;;;15.20;3.60;;;;;;;14.14;64.96;102066.53;5058399;28;20085;-70
2023/05/26 01:16:35;;;;;;;10.57;3.10;;;;;;;14.20;64.03;102078.44;5060491;28;20056;-71
2023/05/26 01:19:13;;;;;;;14.95;3.65;;;;;;;14.30;65.03;102085.25;5060059;28;20452;-71
2023/05/26 01:21:42;;;;;;;20.08;4.03;;;;;;;14.17;64.39;102079.69;5059139;28;20470;-71
2023/05/26 01:24:13;;;;;;;18.67;4.18;;;;;;;14.22;68.24;102096.19;5058706;28;20071;-70
2023/05/26 01:26:55;;;;;;;16.88;4.22;;;;;;;14.05;67.81;102075.78;5059730;28;20120;-70
2023/05/26 01:29:24;;;;;;;17.38;4.50;;;;;;;14.03;69.88;102062.44;5059605;28;20025;-71
2023/05/26 01:31:50;;;;;;;15.10;3.95;;;;;;;14.08;68.45;102067.28;5058653;28;20128;-71
2023/05/26 01:34:16;;;;;;;15.05;4.45;;;;;;;14.02;65.60;102060.78;5059198;28;20056;-70
2023/05/26 01:36:42;;;;;;;13.10;3.75;;;;;;;14.18;68.84;102085.94;5060155;28;20084;-71
2023/05/26 01:39:09;;;;;;;17.42;4.00;;;;;;;14.07;67.67;102074.59;5061137;28;20021;-70
2023/05/26 01:41:43;;;;;;;20.77;4.20;;;;;;;14.04;70.98;102091.19;5061953;28;20005;-71
2023/05/26 01:44:31;;;;;;;23.58;5.43;;;;;;;14.20;73.06;102084.69;5060627;28;20040;-70
2023/05/26 01:46:57;;;;;;;20.73;4.07;;;;;;;14.09;73.07;102087.91;5064988;28;20067;-71
2023/05/26 01:49:28;;;;;;;18.13;3.35;;;;;;;14.05;70.98;102082.03;5072978;28;20028;-70
2023/05/26 01:52:02;;;;;;;17.58;4.38;;;;;;;13.85;71.85;102053.91;5058456;28;20021;-71
2023/05/26 01:54:33;;;;;;;15.45;3.78;;;;;;;13.90;69.65;102083.94;5058940;28;20547;-71
2023/05/26 01:56:59;;;;;;;13.30;3.33;;;;;;;13.84;69.48;102072.03;5058599;28;20033;-70
2023/05/26 01:59:26;;;;;;;13.20;3.53;;;;;;;13.86;70.89;102050.19;5058901;28;20025;-70
2023/05/26 02:01:51;;;;;;;12.00;2.92;;;;;;;13.82;66.08;102081.34;5076776;28;20041;-70
2023/05/26 02:04:17;;;;;;;12.30;3.50;;;;;;;13.80;67.42;102051.75;5045276;28;20491;-71
2023/05/26 02:06:42;;;;;;;12.18;3.17;;;;;;;13.88;66.61;102056.25;5060261;28;20101;-71
2023/05/26 02:09:08;;;;;;;13.88;3.22;;;;;;;13.94;67.05;102078.97;5063419;28;20025;-70
2023/05/26 02:11:33;;;;;;;9.38;2.08;;;;;;;13.92;64.98;102062.94;5063091;28;20499;-71
2023/05/26 02:13:59;;;;;;;10.48;3.03;;;;;;;13.89;68.83;102043.56;5079773;28;20511;-70
2023/05/26 02:16:26;;;;;;;13.63;3.97;;;;;;;13.89;68.10;102049.78;5079551;28;20051;-71
2023/05/26 02:18:52;;;;;;;14.80;4.30;;;;;;;13.75;67.52;102042.56;5041660;28;20401;-71
2023/05/26 02:21:18;;;;;;;10.32;2.55;;;;;;;13.69;67.22;102041.44;5059380;28;20020;-71
2023/05/26 02:23:43;;;;;;;12.77;2.90;;;;;;;13.69;68.49;102037.91;5080523;28;20391;-71
2023/05/26 02:26:09;;;;;;;12.23;3.00;;;;;;;13.80;68.23;102062.59;5062724;28;20024;-70
2023/05/26 02:28:35;;;;;;;10.55;3.13;;;;;;;13.70;68.68;102047.69;5080248;28;20027;-70
2023/05/26 02:31:00;;;;;;;16.45;3.45;;;;;;;13.89;72.25;102066.03;5045561;28;20028;-71
2023/05/26 02:33:26;;;;;;;15.05;3.85;;;;;;;14.01;74.00;102066.38;5029196;28;20029;-70
2023/05/26 02:35:52;;;;;;;20.17;3.85;;;;;;;13.76;71.60;102052.34;5045963;28;20020;-70
2023/05/26 02:38:17;;;;;;;12.10;3.28;;;;;;;13.70;72.83;102072.03;5062023;28;20082;-71
2023/05/26 02:40:42;;;;;;;11.75;2.90;;;;;;;13.66;73.48;102066.16;5043014;28;20028;-70
2023/05/26 02:43:08;;;;;;;11.15;3.05;;;;;;;13.60;70.79;102085.84;5061820;28;20033;-70
2023/05/26 02:45:33;;;;;;;15.02;3.75;;;;;;;13.64;73.03;102062.78;5079455;28;20029;-72
2023/05/26 02:47:59;;;;;;;12.77;2.92;;;;;;;13.77;70.87;102089.19;5062164;28;20047;-71
2023/05/26 02:50:24;;;;;;;15.35;3.80;;;;;;;13.47;71.64;102056.75;5080795;28;20024;-70
2023/05/26 02:52:50;;;;;;;14.25;3.20;;;;;;;13.74;69.52;102089.56;5027304;28;20040;-72
2023/05/26 02:55:15;;;;;;;16.35;3.40;;;;;;;13.77;70.77;102081.91;5061994;28;20036;-70
2023/05/26 02:57:41;;;;;;;11.20;3.00;;;;;;;13.97;72.39;102084.88;5081342;28;20040;-70
2023/05/26 03:00:07;;;;;;;11.05;3.00;;;;;;;13.88;71.78;102088.72;5045708;28;20037;-70
2023/05/26 03:02:33;;;;;;;11.93;2.80;;;;;;;13.88;69.46;102071.66;5080227;28;20032;-70
2023/05/26 03:04:59;;;;;;;16.17;3.47;;;;;;;13.96;71.63;102090.47;5061936;28;20103;-70
2023/05/26 03:07:24;;;;;;;12.23;2.95;;;;;;;14.14;70.60;102088.19;5061061;28;20088;-71
2023/05/26 03:09:50;;;;;;;10.38;3.13;;;;;;;14.16;69.83;102098.81;5061376;28;20039;-70
2023/05/26 03:12:15;;;;;;;11.90;2.95;;;;;;;14.15;71.19;102076.31;5079930;28;20045;-71
2023/05/26 03:14:42;;;;;;;12.75;3.40;;;;;;;14.18;69.88;102072.41;5061704;28;20036;-70
2023/05/26 03:17:07;;;;;;;9.60;2.47;;;;;;;14.02;70.55;102098.66;5079648;28;20499;-71
2023/05/26 03:19:33;;;;;;;12.77;3.47;;;;;;;13.93;68.49;102078.16;5079689;28;20028;-71
2023/05/26 03:21:58;;;;;;;12.77;3.13;;;;;;;14.18;69.45;102113.84;5044750;28;20039;-70
2023/05/26 03:24:24;;;;;;;14.95;2.97;;;;;;;14.09;70.28;102104.16;5061033;28;20055;-71
2023/05/26 03:26:50;;;;;;;15.23;3.05;;;;;;;14.25;72.30;102097.66;5061251;28;20446;-71
2023/05/26 03:29:15;;;;;;;14.82;3.35;;;;;;;14.39;70.55;102107.59;5061317;28;20021;-71
2023/05/26 03:31:41;;;;;;;15.73;2.80;;;;;;;14.41;70.39;102102.84;5061603;28;20040;-70
2023/05/26 03:34:06;;;;;;;18.70;3.38;;;;;;;14.22;70.22;102093.47;5061002;28;20029;-71
2023/05/26 03:36:31;;;;;;;13.38;3.20;;;;;;;14.14;69.12;102073.78;5044680;28;20056;-72
2023/05/26 03:38:57;;;;;;;12.57;2.33;;;;;;;14.30;68.12;102098.78;5079424;28;20020;-71
2023/05/26 03:41:22;;;;;;;10.18;2.40;;;;;;;14.29;68.17;102080.00;5061524;28;20398;-71
2023/05/26 03:43:48;;;;;;;14.40;3.05;;;;;;;14.42;69.74;102109.91;5061281;28;20032;-71
2023/05/26 03:46:14;;;;;;;10.38;2.45;;;;;;;14.57;69.34;102113.44;5060966;28;20032;-71
2023/05/26 03:48:40;;;;;;;13.77;3.10;;;;;;;14.55;69.25;102106.53;5061103;28;20024;-70
2023/05/26 03:51:05;;;;;;;11.45;2.45;;;;;;;14.49;69.58;102102.69;5078320;28;20051;-71
2023/05/26 03:53:30;;;;;;;12.68;3.00;;;;;;;14.59;69.17;102112.41;5077098;28;20387;-71
2023/05/26 03:55:56;;;;;;;11.10;2.50;;;;;;;14.55;68.08;102083.00;5074942;28;20089;-71
2023/05/26 03:58:22;;;;;;;10.45;2.35;;;;;;;14.83;69.60;102117.41;5043442;28;20032;-71
2023/05/26 04:00:47;;;;;;;9.35;2.40;;;;;;;14.86;69.02;102103.47;5078753;28;20037;-71
2023/05/26 04:03:13;;;;;;;12.85;2.60;;;;;;;14.75;70.28;102093.19;5043767;28;20380;-71
2023/05/26 04:05:39;;;;;;;13.35;2.65;;;;;;;14.94;69.25;102107.94;5078368;28;20502;-71
2023/05/26 04:08:04;;;;;;;8.30;2.72;;;;;;;14.89;68.89;102132.06;5060732;28;20033;-70
2023/05/26 04:10:30;;;;;;;11.48;2.80;;;;;;;14.83;70.05;102128.25;5027940;28;20025;-71
2023/05/26 04:12:55;;;;;;;11.52;2.67;;;;;;;14.93;71.19;102115.25;5072662;28;20043;-72
2023/05/26 04:15:20;;;;;;;8.93;2.22;;;;;;;14.90;69.89;102137.31;5098086;28;20035;-71
2023/05/26 04:17:46;;;;;;;9.60;2.50;;;;;;;14.80;69.34;102117.81;5080746;28;20032;-71
2023/05/26 04:20:11;;;;;;;8.90;2.17;;;;;;;14.61;68.08;102132.88;5064157;28;20028;-72
2023/05/26 04:22:38;;;;;;;13.30;3.03;;;;;;;14.69;69.63;102121.06;5081219;28;20044;-71
2023/05/26 04:25:04;;;;;;;9.68;2.63;;;;;;;14.73;72.00;102114.19;5081334;28;20510;-73
2023/05/26 04:27:30;;;;;;;10.95;2.30;;;;;;;14.80;66.30;102143.06;5094432;28;20028;-71
2023/05/26 04:29:58;;;;;;;8.20;1.77;;;;;;;15.01;68.07;102163.03;5060888;28;20023;-72
2023/05/26 04:32:24;;;;;;;10.82;2.60;;;;;;;14.92;68.05;102145.22;5061497;28;20032;-72
2023/05/26 04:34:50;;;;;;;10.15;2.53;;;;;;;15.09;66.60;102152.03;5062145;28;20043;-74
2023/05/26 04:37:16;;;;;;;10.07;2.30;;;;;;;15.02;65.97;102162.00;5065588;28;20012;-74
2023/05/26 04:39:42;;;;;;;9.35;1.70;;;;;;;15.11;64.89;102149.97;5068948;28;20033;-75
2023/05/26 04:42:08;;;;;;;7.50;2.10;;;;;;;14.89;64.67;102122.06;5061989;28;20031;-74
2023/05/26 04:44:33;;;;;;;6.55;1.75;;;;;;;14.90;65.72;102141.88;5080505;28;20032;-74
2023/05/26 04:47:03;;;;;;;9.43;2.40;;;;;;;14.86;65.17;102171.22;5084913;28;20114;-75
2023/05/26 04:49:29;;;;;;;7.50;1.77;;;;;;;14.76;63.24;102152.59;5067470;28;20044;-74
2023/05/26 04:51:59;;;;;;;8.73;2.28;;;;;;;14.77;65.84;102165.13;5085365;28;20077;-74
2023/05/26 04:54:25;;;;;;;12.13;2.13;;;;;;;14.90;66.31;102155.41;5086423;28;20500;-74
2023/05/26 04:56:50;;;;;;;8.90;2.20;;;;;;;14.85;65.95;102150.59;5086735;28;20024;-74
2023/05/26 04:59:17;;;;;;;7.93;2.10;;;;;;;14.76;63.98;102165.31;5085639;28;20123;-75
2023/05/26 05:01:44;;;;;;;9.02;2.25;;;;;;;14.82;64.99;102178.06;5084068;28;20079;-73
2023/05/26 05:04:09;;;;;;;7.38;1.88;;;;;;;14.92;64.80;102170.47;5101926;28;20045;-73
2023/05/26 05:06:35;;;;;;;4.90;1.58;;;;;;;14.91;65.88;102155.25;5070621;28;20099;-73
2023/05/26 05:09:01;;;;;;;6.82;1.65;;;;;;;14.88;66.13;102155.63;5069468;28;20035;-73
2023/05/26 05:11:26;;;;;;;9.70;1.90;;;;;;;14.95;67.65;102170.06;5068459;28;20008;-74
2023/05/26 05:13:52;;;;;;;6.70;1.27;;;;;;;14.87;65.51;102170.22;5084954;28;20036;-73
2023/05/26 05:16:17;;;;;;;8.40;2.05;;;;;;;14.87;68.18;102188.34;5068766;28;20034;-72
2023/05/26 05:18:44;;;;;;;9.10;2.10;;;;;;;14.85;69.55;102171.44;5084091;28;20028;-73
2023/05/26 05:21:09;;;;;;;8.70;2.17;;;;;;;14.88;68.75;102209.81;5083402;28;20031;-72
2023/05/26 05:23:35;;;;;;;8.32;2.00;;;;;;;15.01;68.35;102206.41;5063121;28;20110;-72
2023/05/26 05:26:01;;;;;;;8.70;2.25;;;;;;;15.11;68.93;102204.22;5047419;28;20058;-72
2023/05/26 05:28:26;;;;;;;7.25;1.65;;;;;;;15.08;68.46;102201.88;5061792;28;20033;-72
2023/05/26 05:30:52;;;;;;;7.65;1.73;;;;;;;15.03;68.96;102191.63;5061614;28;20506;-72
2023/05/26 05:33:18;;;;;;;8.18;1.70;;;;;;;15.08;67.73;102214.59;5045914;28;20036;-73
2023/05/26 05:35:45;;;;;;;8.82;1.90;;;;;;;15.12;68.31;102208.59;5064494;28;20037;-72
2023/05/26 05:38:11;;;;;;;11.77;1.55;;;;;;;15.36;69.06;102230.91;5047078;28;20102;-73
2023/05/26 05:40:36;;;;;;;10.77;2.45;;;;;;;15.27;68.46;102205.81;5081655;28;20035;-73
2023/05/26 05:43:02;;;;;;;8.30;1.75;;;;;;;14.87;69.49;102229.84;5063997;28;20063;-73
2023/05/26 05:45:28;;;;;;;12.38;2.38;;;;;;;14.90;70.86;102196.94;5062858;28;20024;-72
2023/05/26 05:47:53;;;;;;;6.88;1.83;;;;;;;14.93;68.52;102196.56;5063897;28;20429;-74
2023/05/26 05:50:19;;;;;;;4.68;0.90;;;;;;;14.67;67.81;102161.03;5063407;28;20120;-72
2023/05/26 05:52:44;;;;;;;6.70;1.70;;;;;;;14.88;68.00;102199.00;5063116;28;20312;-72
2023/05/26 05:55:10;;;;;;;6.03;1.50;;;;;;;14.88;68.86;102206.28;5061822;28;20115;-73
2023/05/26 05:57:36;;;;;;;7.45;1.67;;;;;;;14.91;70.27;102205.91;5060818;28;20028;-72
2023/05/26 06:00:05;;;;;;;9.70;2.22;;;;;;;15.00;69.65;102207.47;5062874;28;20119;-73
2023/05/26 06:02:30;;;;;;;7.00;1.60;;;;;;;15.21;70.61;102228.28;5066551;28;20400;-74
2023/05/26 06:04:56;;;;;;;11.40;1.95;;;;;;;15.04;67.79;102209.56;5064337;28;20048;-73
2023/05/26 06:07:21;;;;;;;8.57;1.80;;;;;;;15.26;67.44;102237.53;5050837;28;20028;-74
2023/05/26 06:09:47;;;;;;;6.07;1.52;;;;;;;14.93;67.64;102193.84;5082836;28;20036;-74
2023/05/26 06:12:12;;;;;;;6.35;1.60;;;;;;;15.18;66.55;102215.94;5050304;28;20035;-73
2023/05/26 06:14:38;;;;;;;4.93;1.20;;;;;;;15.19;63.69;102231.16;5073576;28;20028;-73
2023/05/26 06:17:04;;;;;;;5.18;1.20;;;;;;;15.38;64.12;102202.56;5082215;28;20039;-73
2023/05/26 06:19:30;;;;;;;8.93;1.65;;;;;;;15.56;64.33;102215.59;5064624;28;20070;-73
2023/05/26 06:21:56;;;;;;;6.45;1.42;;;;;;;15.44;64.79;102250.59;5063730;28;20029;-73
2023/05/26 06:24:21;;;;;;;6.88;1.70;;;;;;;15.68;67.08;102237.66;5030477;28;20038;-74
2023/05/26 06:26:47;;;;;;;5.75;1.75;;;;;;;15.48;65.13;102234.75;5047049;28;20060;-74
2023/05/26 06:29:12;;;;;;;8.82;1.80;;;;;;;15.54;65.35;102223.13;5064150;28;20035;-73
2023/05/26 06:31:37;;;;;;;9.05;2.42;;;;;;;15.59;65.04;102225.22;5063761;28;20112;-73
2023/05/26 06:34:03;;;;;;;6.93;1.48;;;;;;;15.67;64.15;102263.97;5065501;28;20487;-73
2023/05/26 06:36:28;;;;;;;7.60;1.52;;;;;;;15.48;64.87;102249.16;5065509;28;20062;-73
2023/05/26 06:38:54;;;;;;;9.70;1.60;;;;;;;15.54;65.19;102244.84;5076352;28;20035;-73
2023/05/26 06:41:19;;;;;;;7.85;1.58;;;;;;;15.88;64.00;102260.34;5049140;28;20036;-74
2023/05/26 06:43:45;;;;;;;7.97;1.50;;;;;;;15.39;62.58;102234.06;5095403;28;20020;-73
2023/05/26 06:46:10;;;;;;;5.10;1.38;;;;;;;15.68;64.40;102262.06;5067740;28;20040;-72
2023/05/26 06:48:36;;;;;;;8.00;1.67;;;;;;;15.50;63.21;102247.09;5099878;28;20059;-73
2023/05/26 06:51:01;;;;;;;6.18;1.33;;;;;;;15.55;63.25;102262.78;5047610;28;20039;-73
2023/05/26 06:53:27;;;;;;;7.75;1.25;;;;;;;15.50;62.78;102259.84;5082615;28;20131;-73
2023/05/26 06:55:52;;;;;;;4.97;1.17;;;;;;;15.39;62.56;102247.63;5075731;28;20040;-73
2023/05/26 06:58:18;;;;;;;7.88;1.60;;;;;;;15.67;64.64;102274.81;5069982;28;20029;-73
2023/05/26 07:01:01;;;;;;;6.70;2.00;;;;;;;15.50;65.85;102268.81;5072070;28;20040;-73
2023/05/26 07:03:27;;;;;;;7.75;1.40;;;;;;;15.39;66.51;102249.50;5080812;28;20024;-73
2023/05/26 07:05:54;;;;;;;6.10;1.45;;;;;;;15.55;62.19;102270.09;5064039;28;20054;-73
2023/05/26 07:08:19;;;;;;;6.75;1.55;;;;;;;15.67;64.33;102266.66;5063598;28;20112;-73
2023/05/26 07:10:45;;;;;;;6.15;1.10;;;;;;;15.54;59.90;102255.69;5070735;28;20088;-73
2023/05/26 07:13:10;;;;;;;4.57;0.90;;;;;;;15.70;59.15;102282.56;5063712;28;20035;-73
2023/05/26 07:15:36;;;;;;;5.88;1.20;;;;;;;15.72;61.02;102277.75;5081655;28;20479;-73
2023/05/26 07:18:01;;;;;;;3.35;1.02;;;;;;;15.78;59.60;102272.59;5081322;28;20458;-74
2023/05/26 07:20:27;;;;;;;4.40;0.95;;;;;;;15.90;58.30;102285.41;5101523;28;20107;-73
2023/05/26 07:22:52;;;;;;;3.88;0.70;;;;;;;15.71;58.12;102283.41;5102421;28;20031;-73
2023/05/26 07:25:19;;;;;;;5.68;1.10;;;;;;;15.41;56.68;102259.13;5083770;28;20043;-73
2023/05/26 07:27:44;;;;;;;2.97;1.13;;;;;;;15.51;55.15;102278.63;5083553;28;20032;-73
2023/05/26 07:30:10;;;;;;;3.38;0.98;;;;;;;15.86;56.20;102296.84;5085653;28;20122;-73
2023/05/26 07:32:36;;;;;;;2.38;0.70;;;;;;;15.65;56.04;102271.41;5102552;28;20081;-73
2023/05/26 07:35:01;;;;;;;3.40;1.30;;;;;;;16.02;58.21;102282.13;5064048;28;20028;-73
2023/05/26 07:37:27;;;;;;;2.85;0.82;;;;;;;15.70;55.34;102271.72;5064575;28;20027;-74
2023/05/26 07:39:52;;;;;;;2.60;0.77;;;;;;;15.86;54.41;102291.44;5104389;28;20043;-73
2023/05/26 07:42:17;;;;;;;4.20;1.10;;;;;;;16.08;55.02;102276.75;5075168;28;20028;-72
2023/05/26 07:44:43;;;;;;;2.60;0.60;;;;;;;16.12;52.25;102277.19;5076373;28;20087;-73
2023/05/26 07:47:08;;;;;;;2.97;0.60;;;;;;;16.18;51.21;102279.94;5076981;28;20032;-74
2023/05/26 07:49:34;;;;;;;3.58;0.52;;;;;;;16.11;50.32;102281.78;5087145;28;20390;-73
2023/05/26 07:51:59;;;;;;;3.67;0.80;;;;;;;16.64;51.68;102308.38;5082344;28;20084;-73
2023/05/26 07:54:25;;;;;;;5.22;0.85;;;;;;;16.38;54.14;102295.50;5082005;28;20023;-73
2023/05/26 07:56:50;;;;;;;4.63;0.90;;;;;;;16.10;54.63;102298.28;5081241;28;20028;-74
2023/05/26 07:59:16;;;;;;;4.68;0.85;;;;;;;16.40;53.25;102337.75;5080982;28;20028;-73
2023/05/26 08:01:42;;;;;;;4.45;0.80;;;;;;;16.46;54.35;102314.38;5067795;28;20055;-73
2023/05/26 08:04:07;;;;;;;5.10;0.90;;;;;;;16.27;55.49;102326.81;5060286;28;20082;-72
2023/05/26 08:06:35;;;;;;;5.28;1.10;;;;;;;16.05;54.05;102306.19;5057989;28;20068;-72
2023/05/26 08:09:01;;;;;;;3.08;1.00;;;;;;;16.21;54.10;102320.28;5044443;28;20017;-73
2023/05/26 08:11:26;;;;;;;7.10;0.85;;;;;;;16.53;53.15;102322.56;5070078;28;20086;-73
2023/05/26 08:13:52;;;;;;;6.47;0.90;;;;;;;16.37;54.63;102321.84;5070077;28;20029;-73
2023/05/26 08:16:17;;;;;;;3.40;0.88;;;;;;;16.05;55.49;102334.16;5079505;28;20081;-73
2023/05/26 08:18:43;;;;;;;4.90;0.95;;;;;;;16.10;53.66;102328.16;5087155;28;20024;-73
2023/05/26 08:21:09;;;;;;;3.97;1.05;;;;;;;15.98;52.36;102339.56;5087243;28;20043;-73
2023/05/26 08:23:34;;;;;;;2.40;0.73;;;;;;;16.41;51.78;102333.16;5061829;28;20028;-74
2023/05/26 08:25:59;;;;;;;1.55;0.60;;;;;;;16.33;52.18;102353.16;5061499;28;20028;-73
2023/05/26 08:28:25;;;;;;;3.25;0.73;;;;;;;16.20;52.07;102353.09;5044617;28;20033;-73
2023/05/26 08:30:50;;;;;;;3.47;0.77;;;;;;;16.26;51.89;102352.28;5060604;28;20043;-73
2023/05/26 08:33:16;;;;;;;3.70;0.70;;;;;;;16.59;53.24;102349.78;5060700;28;20112;-73
2023/05/26 08:35:43;;;;;;;7.18;1.00;;;;;;;16.17;54.45;102327.16;5044046;28;20048;-72
2023/05/26 08:38:08;;;;;;;5.57;1.40;;;;;;;16.02;56.88;102336.44;5061191;28;20029;-73
2023/05/26 08:40:34;;;;;;;6.50;1.67;;;;;;;16.13;59.09;102338.63;5081641;28;20023;-73
2023/05/26 08:43:06;;;;;;;5.75;1.23;;;;;;;15.76;59.00;102340.66;5053520;28;20140;-73
2023/05/26 08:45:33;;;;;;;5.68;1.05;;;;;;;15.77;59.20;102353.19;5072774;28;20077;-72
2023/05/26 08:48:01;;;;;;;3.55;1.13;;;;;;;15.59;58.23;102350.03;5081734;28;20495;-71
2023/05/26 08:50:30;;;;;;;6.03;1.20;;;;;;;15.56;62.21;102328.72;5082808;28;20471;-74
2023/05/26 08:52:57;;;;;;;5.32;1.10;;;;;;;15.64;61.77;102348.44;5099516;28;20034;-72
2023/05/26 08:55:23;;;;;;;4.45;0.55;;;;;;;15.76;57.29;102329.78;5065335;28;20265;-73
2023/05/26 08:57:49;;;;;;;4.00;1.02;;;;;;;15.98;56.16;102355.84;5067442;28;20024;-72
2023/05/26 09:00:16;;;;;;;4.47;0.88;;;;;;;15.61;57.29;102339.84;5101305;28;20470;-73
2023/05/26 09:02:43;;;;;;;5.45;1.02;;;;;;;15.68;55.29;102347.03;5102761;28;20062;-73
2023/05/26 09:05:08;;;;;;;5.38;1.10;;;;;;;15.63;55.60;102343.19;5101655;28;20024;-73
2023/05/26 09:07:34;;;;;;;3.90;0.90;;;;;;;15.86;57.01;102352.00;5081396;28;20028;-72
2023/05/26 09:10:20;;;;;;;2.30;0.73;;;;;;;16.31;54.67;102360.66;5053729;28;20029;-73
2023/05/26 09:12:46;;;;;;;4.32;0.98;;;;;;;16.28;54.90;102333.06;5084079;28;20085;-72
2023/05/26 09:15:19;;;;;;;3.33;0.77;;;;;;;15.78;55.89;102344.00;5073911;28;20031;-73
2023/05/26 09:17:46;;;;;;;4.65;1.05;;;;;;;15.73;56.64;102360.88;5065508;28;20119;-73
2023/05/26 09:20:11;;;;;;;3.63;1.23;;;;;;;15.37;55.42;102332.94;5046422;28;20025;-73
2023/05/26 09:22:38;;;;;;;5.90;1.02;;;;;;;15.65;57.13;102360.97;5081174;28;20029;-73
2023/05/26 09:25:04;;;;;;;4.68;0.82;;;;;;;15.94;55.26;102364.59;5082089;28;20066;-72
2023/05/26 09:27:29;;;;;;;3.20;0.90;;;;;;;15.87;53.16;102364.53;5047206;28;20037;-73
2023/05/26 09:30:00;;;;;;;3.25;0.80;;;;;;;15.90;52.78;102358.72;5048344;28;20028;-73
2023/05/26 09:32:27;;;;;;;5.80;1.25;;;;;;;15.61;54.84;102337.13;5051492;28;20037;-73
2023/05/26 09:34:52;;;;;;;3.45;1.00;;;;;;;15.42;54.19;102323.19;5074582;28;20054;-74
2023/05/26 09:37:24;;;;;;;4.70;0.82;;;;;;;15.74;53.59;102367.13;5081591;28;20427;-73
2023/05/26 09:39:50;;;;;;;3.58;0.80;;;;;;;15.78;54.71;102395.56;5069308;28;20136;-72
2023/05/26 09:42:15;;;;;;;1.60;0.50;;;;;;;15.69;50.49;102369.56;5072478;28;20756;-71
2023/05/26 09:44:47;;;;;;;2.85;0.60;;;;;;;15.78;51.78;102368.41;5067750;28;20027;-72
2023/05/26 09:47:20;;;;;;;5.47;1.10;;;;;;;15.76;51.30;102380.50;5069928;28;20023;-73
2023/05/26 09:49:45;;;;;;;2.92;0.70;;;;;;;16.00;53.65;102360.25;5068089;28;20016;-72
2023/05/26 09:52:10;;;;;;;3.83;1.00;;;;;;;15.91;54.66;102364.97;5059763;28;20047;-72
2023/05/26 09:54:36;;;;;;;3.13;0.98;;;;;;;15.78;53.31;102368.41;5079129;28;20106;-72
2023/05/26 09:57:04;;;;;;;2.38;0.80;;;;;;;15.93;54.64;102390.06;5079069;28;20027;-72
2023/05/26 09:59:37;;;;;;;2.25;0.63;;;;;;;16.03;50.99;102379.72;5096148;28;20024;-71
2023/05/26 10:02:24;;;;;;;4.13;0.80;;;;;;;15.82;51.19;102383.28;5061658;28;20057;-72
2023/05/26 10:04:51;;;;;;;3.63;0.80;;;;;;;15.92;51.67;102394.63;5077974;28;20039;-73
2023/05/26 10:07:18;;;;;;;2.65;0.82;;;;;;;15.93;53.64;102396.34;5077366;28;20040;-72
2023/05/26 10:09:58;;;;;;;4.15;0.93;;;;;;;15.96;51.42;102363.38;5076726;28;20029;-73
2023/05/26 10:12:28;;;;;;;1.58;0.60;;;;;;;15.98;47.48;102396.56;5066320;28;20031;-73
2023/05/26 10:14:54;;;;;;;2.05;0.70;;;;;;;15.82;46.81;102364.28;5076504;28;20028;-72
2023/05/26 10:17:22;;;;;;;3.17;0.80;;;;;;;16.09;49.38;102375.34;5074750;28;20025;-73
2023/05/26 10:19:48;;;;;;;1.92;0.57;;;;;;;16.01;48.45;102381.75;5075524;28;20103;-73
2023/05/26 10:22:49;;;;;;;1.73;0.85;;;;;;;16.09;46.13;102388.91;5058982;28;20043;-72
2023/05/26 10:25:23;;;;;;;3.15;0.60;;;;;;;16.23;50.40;102407.00;5072711;28;20041;-72
2023/05/26 10:28:13;;;;;;;1.70;0.40;;;;;;;16.26;44.92;102401.19;5076873;28;20487;-72
2023/05/26 10:30:41;;;;;;;0.68;0.30;;;;;;;16.18;44.08;102387.75;5076817;28;20078;-73
2023/05/26 10:33:16;;;;;;;2.08;0.68;;;;;;;16.20;43.85;102372.94;5078030;28;20037;-72
2023/05/26 10:35:53;;;;;;;2.33;0.70;;;;;;;15.92;46.99;102370.19;5077080;28;20031;-73
2023/05/26 10:38:19;;;;;;;4.28;0.88;;;;;;;16.05;48.88;102390.34;5074057;28;20391;-73
2023/05/26 10:40:50;;;;;;;1.77;0.52;;;;;;;16.10;46.17;102396.06;5058423;28;20025;-72
2023/05/26 10:43:24;;;;;;;2.17;0.50;;;;;;;16.19;45.04;102394.84;5076702;28;20036;-72
2023/05/26 10:46:03;;;;;;;1.23;0.70;;;;;;;16.08;47.34;102393.50;5078581;28;20108;-72
2023/05/26 10:48:36;;;;;;;2.05;0.60;;;;;;;15.97;46.08;102388.63;5077188;28;20555;-72
2023/05/26 10:51:08;;;;;;;2.70;0.77;;;;;;;16.02;46.15;102404.31;5076508;28;20031;-72
2023/05/26 10:53:45;;;;;;;1.75;0.60;;;;;;;16.04;46.12;102410.41;5076571;28;20445;-72
2023/05/26 10:56:13;;;;;;;3.40;0.80;;;;;;;16.00;47.90;102401.81;5076094;28;20071;-72
2023/05/26 10:58:41;;;;;;;2.33;0.70;;;;;;;16.13;46.92;102404.63;5076151;28;20023;-73
2023/05/26 11:01:27;;;;;;;1.45;0.60;;;;;;;16.07;44.84;102397.28;5088250;28;20050;-73
2023/05/26 11:04:08;;;;;;;2.30;0.75;;;;;;;16.06;44.56;102417.31;5079694;28;20035;-72
2023/05/26 11:07:00;;;;;;;3.28;0.70;;;;;;;16.10;43.71;102406.91;5079632;28;20053;-73
2023/05/26 11:09:27;;;;;;;2.22;0.70;;;;;;;16.17;47.51;102399.66;5079100;28;20040;-73
2023/05/26 11:11:57;;;;;;;1.33;0.40;;;;;;;16.21;42.43;102409.06;5097386;28;20028;-72
2023/05/26 11:14:24;;;;;;;3.00;0.80;;;;;;;16.31;45.77;102389.72;5098978;28;20024;-73
2023/05/26 11:16:51;;;;;;;2.72;0.60;;;;;;;16.31;45.61;102404.13;5078204;28;20016;-72
2023/05/26 11:19:30;;;;;;;2.47;0.60;;;;;;;16.10;43.45;102386.03;5079466;28;20051;-73
2023/05/26 11:21:57;;;;;;;1.90;0.70;;;;;;;16.10;45.15;102383.31;5075719;28;20032;-73